sensor_id;sensor_type;location;lat;lon;timestamp;pressure;altitude;pressure_sealevel;temperature;humidity
59103;BME280;43999;51.660;5.616;2023-07-09T00:00:18;101486.88;;;24.99;90.77
59103;BME280;43999;51.660;5.616;2023-07-09T00:02:55;101485.53;;;24.95;91.23
59103;BME280;43999;51.660;5.616;2023-07-09T00:05:23;101479.00;;;24.90;91.23
59103;BME280;43999;51.660;5.616;2023-07-09T00:07:52;101483.66;;;24.87;91.75
59103;BME280;43999;51.660;5.616;2023-07-09T00:10:21;101481.28;;;24.84;91.30
59103;BME280;43999;51.660;5.616;2023-07-09T00:12:49;101481.63;;;24.81;91.58
59103;BME280;43999;51.660;5.616;2023-07-09T00:15:17;101482.63;;;24.80;91.62
59103;BME280;43999;51.660;5.616;2023-07-09T00:17:45;101475.75;;;24.78;90.93
59103;BME280;43999;51.660;5.616;2023-07-09T00:20:18;101484.47;;;24.80;90.23
59103;BME280;43999;51.660;5.616;2023-07-09T00:22:46;101482.63;;;24.80;88.69
59103;BME280;43999;51.660;5.616;2023-07-09T00:25:20;101484.13;;;24.83;88.22
59103;BME280;43999;51.660;5.616;2023-07-09T00:27:48;101486.66;;;24.84;88.11
59103;BME280;43999;51.660;5.616;2023-07-09T00:30:20;101487.69;;;24.83;87.77
59103;BME280;43999;51.660;5.616;2023-07-09T00:32:50;101490.19;;;24.85;87.28
59103;BME280;43999;51.660;5.616;2023-07-09T00:35:21;101488.34;;;24.85;88.15
59103;BME280;43999;51.660;5.616;2023-07-09T00:37:51;101488.34;;;24.85;89.34
59103;BME280;43999;51.660;5.616;2023-07-09T00:40:22;101486.81;;;24.83;89.20
59103;BME280;43999;51.660;5.616;2023-07-09T00:42:54;101492.81;;;24.77;89.88
59103;BME280;43999;51.660;5.616;2023-07-09T00:45:26;101508.03;;;24.68;90.34
59103;BME280;43999;51.660;5.616;2023-07-09T00:47:59;101508.13;;;24.58;90.39
59103;BME280;43999;51.660;5.616;2023-07-09T00:50:48;101513.56;;;24.48;90.57
59103;BME280;43999;51.660;5.616;2023-07-09T00:53:29;101508.84;;;24.42;92.07
59103;BME280;43999;51.660;5.616;2023-07-09T00:56:05;101506.78;;;24.36;91.59
59103;BME280;43999;51.660;5.616;2023-07-09T00:58:38;101519.81;;;24.31;91.98
59103;BME280;43999;51.660;5.616;2023-07-09T01:01:10;101505.88;;;24.27;93.07
59103;BME280;43999;51.660;5.616;2023-07-09T01:03:54;101504.00;;;24.20;93.19
59103;BME280;43999;51.660;5.616;2023-07-09T01:06:41;101493.91;;;24.13;93.03
59103;BME280;43999;51.660;5.616;2023-07-09T01:09:15;101499.88;;;24.07;93.55
59103;BME280;43999;51.660;5.616;2023-07-09T01:11:45;101504.56;;;24.05;94.43
59103;BME280;43999;51.660;5.616;2023-07-09T01:14:17;101499.81;;;23.99;94.37
59103;BME280;43999;51.660;5.616;2023-07-09T01:16:55;101505.34;;;23.97;94.17
59103;BME280;43999;51.660;5.616;2023-07-09T01:19:35;101505.63;;;23.94;94.45
59103;BME280;43999;51.660;5.616;2023-07-09T01:22:17;101504.97;;;23.92;94.08
59103;BME280;43999;51.660;5.616;2023-07-09T01:25:04;101502.59;;;23.89;94.16
59103;BME280;43999;51.660;5.616;2023-07-09T01:27:42;101502.44;;;23.91;95.52
59103;BME280;43999;51.660;5.616;2023-07-09T01:30:28;101495.84;;;23.85;94.99
59103;BME280;43999;51.660;5.616;2023-07-09T01:33:04;101498.22;;;23.88;94.96
59103;BME280;43999;51.660;5.616;2023-07-09T01:35:37;101501.06;;;23.87;94.40
59103;BME280;43999;51.660;5.616;2023-07-09T01:38:10;101503.72;;;23.87;94.19
59103;BME280;43999;51.660;5.616;2023-07-09T01:40:39;101507.09;;;23.89;93.86
59103;BME280;43999;51.660;5.616;2023-07-09T01:43:07;101500.91;;;23.88;93.49
59103;BME280;43999;51.660;5.616;2023-07-09T01:45:36;101509.59;;;23.90;93.68
59103;BME280;43999;51.660;5.616;2023-07-09T01:48:07;101505.94;;;23.91;93.63
59103;BME280;43999;51.660;5.616;2023-07-09T01:50:43;101509.47;;;23.92;93.63
59103;BME280;43999;51.660;5.616;2023-07-09T01:53:12;101507.09;;;23.89;93.42
59103;BME280;43999;51.660;5.616;2023-07-09T01:55:42;101516.66;;;23.91;93.43
59103;BME280;43999;51.660;5.616;2023-07-09T01:58:11;101522.69;;;23.93;93.29
59103;BME280;43999;51.660;5.616;2023-07-09T02:00:40;101524.91;;;23.98;92.92
59103;BME280;43999;51.660;5.616;2023-07-09T02:03:10;101522.06;;;23.99;92.75
59103;BME280;43999;51.660;5.616;2023-07-09T02:05:38;101523.59;;;24.02;92.54
59103;BME280;43999;51.660;5.616;2023-07-09T02:08:08;101523.44;;;24.04;93.00
59103;BME280;43999;51.660;5.616;2023-07-09T02:10:36;101523.44;;;24.04;92.50
59103;BME280;43999;51.660;5.616;2023-07-09T02:13:03;101520.63;;;24.05;92.98
59103;BME280;43999;51.660;5.616;2023-07-09T02:15:31;101517.94;;;24.05;92.30
59103;BME280;43999;51.660;5.616;2023-07-09T02:17:59;101515.25;;;24.05;92.83
59103;BME280;43999;51.660;5.616;2023-07-09T02:20:29;101517.94;;;24.05;92.99
59103;BME280;43999;51.660;5.616;2023-07-09T02:22:57;101517.28;;;24.03;93.27
59103;BME280;43999;51.660;5.616;2023-07-09T02:25:25;101522.78;;;24.02;93.03
59103;BME280;43999;51.660;5.616;2023-07-09T02:28:02;101523.91;;;23.99;93.87
59103;BME280;43999;51.660;5.616;2023-07-09T02:30:31;101524.22;;;23.96;94.07
59103;BME280;43999;51.660;5.616;2023-07-09T02:33:00;101521.19;;;23.91;94.06
59103;BME280;43999;51.660;5.616;2023-07-09T02:35:29;101513.75;;;23.85;95.04
59103;BME280;43999;51.660;5.616;2023-07-09T02:37:57;101510.34;;;23.83;94.94
59103;BME280;43999;51.660;5.616;2023-07-09T02:40:25;101517.16;;;23.77;95.97
59103;BME280;43999;51.660;5.616;2023-07-09T02:42:54;101520.31;;;23.72;95.91
59103;BME280;43999;51.660;5.616;2023-07-09T02:45:22;101516.25;;;23.68;96.64
59103;BME280;43999;51.660;5.616;2023-07-09T02:47:50;101522.06;;;23.63;96.87
59103;BME280;43999;51.660;5.616;2023-07-09T02:50:18;101523.38;;;23.59;96.81
59103;BME280;43999;51.660;5.616;2023-07-09T02:52:46;101521.97;;;23.55;97.25
59103;BME280;43999;51.660;5.616;2023-07-09T02:55:14;101525.09;;;23.51;98.03
59103;BME280;43999;51.660;5.616;2023-07-09T02:57:42;101525.41;;;23.48;98.44
59103;BME280;43999;51.660;5.616;2023-07-09T03:00:11;101529.06;;;23.47;99.01
59103;BME280;43999;51.660;5.616;2023-07-09T03:02:39;101522.19;;;23.44;98.25
59103;BME280;43999;51.660;5.616;2023-07-09T03:05:08;101522.50;;;23.41;98.98
59103;BME280;43999;51.660;5.616;2023-07-09T03:07:41;101520.13;;;23.38;99.45
59103;BME280;43999;51.660;5.616;2023-07-09T03:10:09;101518.72;;;23.34;99.45
59103;BME280;43999;51.660;5.616;2023-07-09T03:12:37;101526.06;;;23.32;100.00
59103;BME280;43999;51.660;5.616;2023-07-09T03:15:05;101522.31;;;23.24;100.00
59103;BME280;43999;51.660;5.616;2023-07-09T03:17:38;101522.91;;;23.18;100.00
59103;BME280;43999;51.660;5.616;2023-07-09T03:20:06;101526.16;;;23.12;100.00
59103;BME280;43999;51.660;5.616;2023-07-09T03:22:37;101528.31;;;23.08;100.00
59103;BME280;43999;51.660;5.616;2023-07-09T03:25:08;101518.31;;;23.01;100.00
59103;BME280;43999;51.660;5.616;2023-07-09T03:27:36;101529.00;;;23.01;100.00
59103;BME280;43999;51.660;5.616;2023-07-09T03:30:05;101523.09;;;22.97;100.00
59103;BME280;43999;51.660;5.616;2023-07-09T03:32:34;101523.41;;;22.94;100.00
59103;BME280;43999;51.660;5.616;2023-07-09T03:35:02;101519.19;;;22.91;100.00
59103;BME280;43999;51.660;5.616;2023-07-09T03:37:30;101521.16;;;22.89;100.00
59103;BME280;43999;51.660;5.616;2023-07-09T03:40:01;101513.44;;;22.86;100.00
59103;BME280;43999;51.660;5.616;2023-07-09T03:42:31;101516.41;;;22.83;100.00
59103;BME280;43999;51.660;5.616;2023-07-09T03:44:59;101519.38;;;22.80;100.00
59103;BME280;43999;51.660;5.616;2023-07-09T03:47:29;101517.84;;;22.78;100.00
59103;BME280;43999;51.660;5.616;2023-07-09T03:49:57;101517.13;;;22.76;100.00
59103;BME280;43999;51.660;5.616;2023-07-09T03:52:25;101517.28;;;22.74;100.00
59103;BME280;43999;51.660;5.616;2023-07-09T03:54:53;101511.25;;;22.72;100.00
59103;BME280;43999;51.660;5.616;2023-07-09T03:57:21;101515.75;;;22.71;100.00
59103;BME280;43999;51.660;5.616;2023-07-09T03:59:49;101515.75;;;22.71;100.00
59103;BME280;43999;51.660;5.616;2023-07-09T04:02:17;101518.59;;;22.70;100.00
59103;BME280;43999;51.660;5.616;2023-07-09T04:04:48;101518.59;;;22.70;100.00
59103;BME280;43999;51.660;5.616;2023-07-09T04:07:16;101517.72;;;22.69;100.00
59103;BME280;43999;51.660;5.616;2023-07-09T04:09:47;101514.91;;;22.71;100.00
59103;BME280;43999;51.660;5.616;2023-07-09T04:12:14;101518.28;;;22.73;100.00
59103;BME280;43999;51.660;5.616;2023-07-09T04:14:42;101518.28;;;22.73;100.00
59103;BME280;43999;51.660;5.616;2023-07-09T04:17:10;101516.44;;;22.73;100.00
59103;BME280;43999;51.660;5.616;2023-07-09T04:19:38;101516.44;;;22.73;100.00
59103;BME280;43999;51.660;5.616;2023-07-09T04:22:11;101518.69;;;22.78;100.00
59103;BME280;43999;51.660;5.616;2023-07-09T04:24:39;101518.81;;;22.77;100.00
59103;BME280;43999;51.660;5.616;2023-07-09T04:27:08;101522.63;;;22.74;100.00
59103;BME280;43999;51.660;5.616;2023-07-09T04:29:36;101521.66;;;22.75;100.00
59103;BME280;43999;51.660;5.616;2023-07-09T04:32:13;101524.59;;;22.72;100.00
59103;BME280;43999;51.660;5.616;2023-07-09T04:34:42;101520.97;;;22.73;100.00
59103;BME280;43999;51.660;5.616;2023-07-09T04:37:11;101520.09;;;22.72;100.00
59103;BME280;43999;51.660;5.616;2023-07-09T04:39:39;101530.63;;;22.74;100.00
59103;BME280;43999;51.660;5.616;2023-07-09T04:42:12;101526.16;;;22.74;100.00
59103;BME280;43999;51.660;5.616;2023-07-09T04:44:42;101530.34;;;22.77;100.00
59103;BME280;43999;51.660;5.616;2023-07-09T04:47:11;101529.50;;;22.77;100.00
59103;BME280;43999;51.660;5.616;2023-07-09T04:49:39;101527.69;;;22.77;100.00
59103;BME280;43999;51.660;5.616;2023-07-09T04:52:08;101529.22;;;22.80;100.00
59103;BME280;43999;51.660;5.616;2023-07-09T04:54:41;101531.47;;;22.84;100.00
59103;BME280;43999;51.660;5.616;2023-07-09T04:57:12;101525.28;;;22.84;100.00
59103;BME280;43999;51.660;5.616;2023-07-09T04:59:39;101536.50;;;22.87;100.00
59103;BME280;43999;51.660;5.616;2023-07-09T05:02:08;101536.91;;;22.92;100.00
59103;BME280;43999;51.660;5.616;2023-07-09T05:04:35;101528.28;;;22.99;100.00
59103;BME280;43999;51.660;5.616;2023-07-09T05:07:03;101530.53;;;23.03;100.00
59103;BME280;43999;51.660;5.616;2023-07-09T05:09:30;101530.09;;;23.08;100.00
59103;BME280;43999;51.660;5.616;2023-07-09T05:11:58;101535.03;;;23.13;100.00
59103;BME280;43999;51.660;5.616;2023-07-09T05:14:27;101531.91;;;23.17;100.00
59103;BME280;43999;51.660;5.616;2023-07-09T05:16:55;101520.75;;;23.22;100.00
59103;BME280;43999;51.660;5.616;2023-07-09T05:19:23;101532.84;;;23.26;100.00
59103;BME280;43999;51.660;5.616;2023-07-09T05:21:51;101533.22;;;23.31;100.00
59103;BME280;43999;51.660;5.616;2023-07-09T05:24:18;101530.25;;;23.34;100.00
59103;BME280;43999;51.660;5.616;2023-07-09T05:26:46;101522.50;;;23.41;100.00
59103;BME280;43999;51.660;5.616;2023-07-09T05:29:13;101523.72;;;23.47;100.00
59103;BME280;43999;51.660;5.616;2023-07-09T05:31:41;101515.22;;;23.51;100.00
59103;BME280;43999;51.660;5.616;2023-07-09T05:34:12;101523.91;;;23.63;100.00
59103;BME280;43999;51.660;5.616;2023-07-09T05:36:40;101528.34;;;23.72;100.00
59103;BME280;43999;51.660;5.616;2023-07-09T05:39:07;101528.09;;;23.84;100.00
59103;BME280;43999;51.660;5.616;2023-07-09T05:41:35;101522.69;;;23.93;100.00
59103;BME280;43999;51.660;5.616;2023-07-09T05:44:03;101524.44;;;24.03;100.00
59103;BME280;43999;51.660;5.616;2023-07-09T05:46:35;101522.38;;;24.14;100.00
59103;BME280;43999;51.660;5.616;2023-07-09T05:49:08;101525.66;;;24.26;100.00
59103;BME280;43999;51.660;5.616;2023-07-09T05:51:38;101529.06;;;24.37;100.00
59103;BME280;43999;51.660;5.616;2023-07-09T05:54:06;101526.75;;;24.42;100.00
59103;BME280;43999;51.660;5.616;2023-07-09T05:56:34;101528.81;;;24.48;100.00
59103;BME280;43999;51.660;5.616;2023-07-09T05:59:02;101528.50;;;24.51;100.00
59103;BME280;43999;51.660;5.616;2023-07-09T06:01:30;101529.69;;;24.57;100.00
59103;BME280;43999;51.660;5.616;2023-07-09T06:04:00;101528.09;;;24.64;100.00
59103;BME280;43999;51.660;5.616;2023-07-09T06:06:28;101544.38;;;24.70;100.00
59103;BME280;43999;51.660;5.616;2023-07-09T06:08:56;101541.06;;;24.77;100.00
59103;BME280;43999;51.660;5.616;2023-07-09T06:11:24;101535.91;;;24.83;100.00
59103;BME280;43999;51.660;5.616;2023-07-09T06:13:52;101540.47;;;24.91;100.00
59103;BME280;43999;51.660;5.616;2023-07-09T06:16:20;101544.19;;;24.98;99.46
59103;BME280;43999;51.660;5.616;2023-07-09T06:18:48;101541.69;;;25.05;99.19
59103;BME280;43999;51.660;5.616;2023-07-09T06:21:16;101536.53;;;25.12;98.79
59103;BME280;43999;51.660;5.616;2023-07-09T06:23:46;101538.41;;;25.19;98.10
59103;BME280;43999;51.660;5.616;2023-07-09T06:26:18;101545.53;;;25.29;97.02
59103;BME280;43999;51.660;5.616;2023-07-09T06:28:46;101547.56;;;25.35;96.56
59103;BME280;43999;51.660;5.616;2023-07-09T06:31:15;101547.91;;;25.40;96.13
59103;BME280;43999;51.660;5.616;2023-07-09T06:33:43;101550.75;;;25.47;95.88
59103;BME280;43999;51.660;5.616;2023-07-09T06:36:11;101550.97;;;25.53;95.72
59103;BME280;43999;51.660;5.616;2023-07-09T06:38:39;101542.41;;;25.58;95.52
59103;BME280;43999;51.660;5.616;2023-07-09T06:41:07;101549.47;;;25.67;95.79
59103;BME280;43999;51.660;5.616;2023-07-09T06:43:35;101556.88;;;25.73;95.38
59103;BME280;43999;51.660;5.616;2023-07-09T06:46:09;101549.81;;;25.81;95.56
59103;BME280;43999;51.660;5.616;2023-07-09T06:48:39;101551.66;;;25.88;95.93
59103;BME280;43999;51.660;5.616;2023-07-09T06:51:06;101548.72;;;26.00;95.45
59103;BME280;43999;51.660;5.616;2023-07-09T06:53:34;101546.03;;;26.08;94.38
59103;BME280;43999;51.660;5.616;2023-07-09T06:56:03;101545.34;;;26.14;94.11
59103;BME280;43999;51.660;5.616;2023-07-09T06:58:33;101546.03;;;26.24;93.61
59103;BME280;43999;51.660;5.616;2023-07-09T07:01:03;101552.69;;;26.37;92.55
59103;BME280;43999;51.660;5.616;2023-07-09T07:03:32;101546.13;;;26.47;92.18
59103;BME280;43999;51.660;5.616;2023-07-09T07:06:01;101545.81;;;26.59;92.48
59103;BME280;43999;51.660;5.616;2023-07-09T07:08:30;101548.31;;;26.69;90.62
59103;BME280;43999;51.660;5.616;2023-07-09T07:11:02;101550.97;;;26.77;91.60
59103;BME280;43999;51.660;5.616;2023-07-09T07:13:35;101547.25;;;26.86;91.28
59103;BME280;43999;51.660;5.616;2023-07-09T07:16:10;101544.03;;;26.99;91.01
59103;BME280;43999;51.660;5.616;2023-07-09T07:18:41;101552.72;;;27.09;89.27
59103;BME280;43999;51.660;5.616;2023-07-09T07:21:08;101546.81;;;27.14;88.85
59103;BME280;43999;51.660;5.616;2023-07-09T07:23:36;101547.44;;;27.24;88.34
59103;BME280;43999;51.660;5.616;2023-07-09T07:26:04;101541.88;;;27.34;87.20
59103;BME280;43999;51.660;5.616;2023-07-09T07:28:35;101542.84;;;27.41;86.50
59103;BME280;43999;51.660;5.616;2023-07-09T07:31:09;101536.59;;;27.49;87.71
59103;BME280;43999;51.660;5.616;2023-07-09T07:33:40;101533.84;;;27.57;87.00
59103;BME280;43999;51.660;5.616;2023-07-09T07:36:11;101541.31;;;27.70;86.01
59103;BME280;43999;51.660;5.616;2023-07-09T07:38:56;101541.75;;;27.82;86.28
59103;BME280;43999;51.660;5.616;2023-07-09T07:41:29;101541.13;;;27.95;84.32
59103;BME280;43999;51.660;5.616;2023-07-09T07:43:57;101540.25;;;28.02;83.35
59103;BME280;43999;51.660;5.616;2023-07-09T07:46:25;101542.22;;;28.08;83.45
59103;BME280;43999;51.660;5.616;2023-07-09T07:48:53;101539.28;;;28.18;83.55
59103;BME280;43999;51.660;5.616;2023-07-09T07:51:22;101533.28;;;28.31;82.70
59103;BME280;43999;51.660;5.616;2023-07-09T07:53:51;101538.38;;;28.41;82.42
59103;BME280;43999;51.660;5.616;2023-07-09T07:56:20;101541.03;;;28.49;82.14
59103;BME280;43999;51.660;5.616;2023-07-09T07:58:48;101536.88;;;28.61;81.17
59103;BME280;43999;51.660;5.616;2023-07-09T08:01:16;101546.00;;;28.75;80.98
59103;BME280;43999;51.660;5.616;2023-07-09T08:03:44;101547.47;;;28.93;79.83
59103;BME280;43999;51.660;5.616;2023-07-09T08:06:12;101543.34;;;29.12;79.55
59103;BME280;43999;51.660;5.616;2023-07-09T08:08:40;101546.38;;;29.39;79.52
59103;BME280;43999;51.660;5.616;2023-07-09T08:11:08;101544.88;;;29.73;75.66
59103;BME280;43999;51.660;5.616;2023-07-09T08:13:37;101541.53;;;30.14;73.34
59103;BME280;43999;51.660;5.616;2023-07-09T08:16:07;101544.19;;;30.57;72.70
59103;BME280;43999;51.660;5.616;2023-07-09T08:18:36;101539.63;;;30.99;70.38
59103;BME280;43999;51.660;5.616;2023-07-09T08:21:05;101536.25;;;31.39;67.79
59103;BME280;43999;51.660;5.616;2023-07-09T08:23:33;101539.88;;;31.79;66.72
59103;BME280;43999;51.660;5.616;2023-07-09T08:26:02;101542.19;;;32.16;64.49
59103;BME280;43999;51.660;5.616;2023-07-09T08:28:32;101535.72;;;32.50;62.25
59103;BME280;43999;51.660;5.616;2023-07-09T08:31:04;101527.91;;;32.81;60.96
59103;BME280;43999;51.660;5.616;2023-07-09T08:33:32;101526.53;;;33.10;58.33
59103;BME280;43999;51.660;5.616;2023-07-09T08:36:01;101529.56;;;33.34;58.40
59103;BME280;43999;51.660;5.616;2023-07-09T08:38:32;101523.56;;;33.64;55.64
59103;BME280;43999;51.660;5.616;2023-07-09T08:44:23;101525.31;;;34.08;53.23
59103;BME280;43999;51.660;5.616;2023-07-09T08:47:41;101532.47;;;34.28;53.12
59103;BME280;43999;51.660;5.616;2023-07-09T08:50:38;101529.22;;;34.56;49.58
59103;BME280;43999;51.660;5.616;2023-07-09T08:53:33;101534.00;;;34.61;49.06
59103;BME280;43999;51.660;5.616;2023-07-09T08:56:32;101524.66;;;34.75;48.77
59103;BME280;43999;51.660;5.616;2023-07-09T08:59:03;101531.97;;;34.93;47.52
59103;BME280;43999;51.660;5.616;2023-07-09T09:01:38;101533.59;;;35.13;45.31
59103;BME280;43999;51.660;5.616;2023-07-09T09:04:29;101531.63;;;35.20;45.14
59103;BME280;43999;51.660;5.616;2023-07-09T09:07:20;101537.00;;;35.27;46.19
59103;BME280;43999;51.660;5.616;2023-07-09T09:10:02;101529.47;;;35.41;45.37
59103;BME280;43999;51.660;5.616;2023-07-09T09:13:11;101533.44;;;35.57;45.24
59103;BME280;43999;51.660;5.616;2023-07-09T09:15:47;101533.69;;;35.67;45.03
59103;BME280;43999;51.660;5.616;2023-07-09T09:18:29;101525.69;;;35.84;44.52
59103;BME280;43999;51.660;5.616;2023-07-09T09:21:23;101518.94;;;35.98;44.62
59103;BME280;43999;51.660;5.616;2023-07-09T09:24:30;101519.34;;;36.25;43.49
59103;BME280;43999;51.660;5.616;2023-07-09T09:27:04;101519.78;;;36.46;42.08
59103;BME280;43999;51.660;5.616;2023-07-09T09:29:32;101522.59;;;36.51;41.82
59103;BME280;43999;51.660;5.616;2023-07-09T09:32:34;101526.50;;;36.67;41.05
59103;BME280;43999;51.660;5.616;2023-07-09T09:35:16;101531.84;;;36.86;40.71
59103;BME280;43999;51.660;5.616;2023-07-09T09:37:55;101529.03;;;36.97;39.98
59103;BME280;43999;51.660;5.616;2023-07-09T09:40:27;101528.66;;;37.06;39.63
59103;BME280;43999;51.660;5.616;2023-07-09T09:42:58;101524.03;;;37.06;38.68
59103;BME280;43999;51.660;5.616;2023-07-09T09:45:35;101514.75;;;37.07;38.81
59103;BME280;43999;51.660;5.616;2023-07-09T09:48:28;101515.75;;;37.18;39.37
59103;BME280;43999;51.660;5.616;2023-07-09T09:50:59;101511.13;;;37.47;38.63
59103;BME280;43999;51.660;5.616;2023-07-09T09:53:38;101502.44;;;37.50;38.33
59103;BME280;43999;51.660;5.616;2023-07-09T09:56:18;101499.38;;;37.64;36.49
59103;BME280;43999;51.660;5.616;2023-07-09T09:58:54;101496.97;;;37.67;37.43
59103;BME280;43999;51.660;5.616;2023-07-09T10:01:29;101494.44;;;37.78;37.62
59103;BME280;43999;51.660;5.616;2023-07-09T10:04:01;101492.75;;;37.94;37.33
59103;BME280;43999;51.660;5.616;2023-07-09T10:06:41;101490.19;;;38.04;36.26
59103;BME280;43999;51.660;5.616;2023-07-09T10:21:46;101482.78;;;38.44;35.04
59103;BME280;43999;51.660;5.616;2023-07-09T10:27:32;101484.25;;;38.51;34.46
59103;BME280;43999;51.660;5.616;2023-07-09T10:33:05;101478.38;;;38.87;33.87
59103;BME280;43999;51.660;5.616;2023-07-09T10:36:28;101485.94;;;39.02;32.27
59103;BME280;43999;51.660;5.616;2023-07-09T10:39:14;101496.38;;;39.05;32.23
59103;BME280;43999;51.660;5.616;2023-07-09T10:41:49;101506.66;;;39.15;32.83
59103;BME280;43999;51.660;5.616;2023-07-09T10:44:29;101495.25;;;39.23;32.55
59103;BME280;43999;51.660;5.616;2023-07-09T10:47:35;101499.63;;;39.24;32.83
59103;BME280;43999;51.660;5.616;2023-07-09T10:50:15;101500.78;;;39.33;31.75
59103;BME280;43999;51.660;5.616;2023-07-09T10:52:51;101500.06;;;39.43;32.44
59103;BME280;43999;51.660;5.616;2023-07-09T10:55:56;101509.44;;;39.52;32.50
59103;BME280;43999;51.660;5.616;2023-07-09T10:58:50;101496.50;;;39.42;32.24
59103;BME280;43999;51.660;5.616;2023-07-09T11:01:42;101497.47;;;39.26;32.33
59103;BME280;43999;51.660;5.616;2023-07-09T11:04:37;101493.69;;;39.32;32.80
59103;BME280;43999;51.660;5.616;2023-07-09T11:07:15;101487.75;;;39.45;32.46
59103;BME280;43999;51.660;5.616;2023-07-09T11:09:51;101477.97;;;39.55;32.29
59103;BME280;43999;51.660;5.616;2023-07-09T11:13:01;101471.97;;;39.58;32.43
59103;BME280;43999;51.660;5.616;2023-07-09T11:15:35;101476.91;;;39.61;31.72
59103;BME280;43999;51.660;5.616;2023-07-09T11:18:13;101470.00;;;39.53;31.67
59103;BME280;43999;51.660;5.616;2023-07-09T11:21:15;101462.50;;;39.43;31.48
59103;BME280;43999;51.660;5.616;2023-07-09T11:23:51;101470.59;;;39.28;30.53
59103;BME280;43999;51.660;5.616;2023-07-09T11:26:33;101469.00;;;39.05;31.06
59103;BME280;43999;51.660;5.616;2023-07-09T11:31:44;101487.72;;;38.64;32.14
59103;BME280;43999;51.660;5.616;2023-07-09T11:35:09;101491.66;;;38.29;32.33
59103;BME280;43999;51.660;5.616;2023-07-09T11:37:47;101496.41;;;37.99;33.28
59103;BME280;43999;51.660;5.616;2023-07-09T11:40:16;101492.38;;;37.85;33.85
59103;BME280;43999;51.660;5.616;2023-07-09T11:42:56;101496.50;;;37.71;33.50
59103;BME280;43999;51.660;5.616;2023-07-09T11:45:33;101487.69;;;37.52;33.44
59103;BME280;43999;51.660;5.616;2023-07-09T11:48:23;101484.38;;;37.33;33.70
59103;BME280;43999;51.660;5.616;2023-07-09T11:50:56;101482.16;;;37.18;34.53
59103;BME280;43999;51.660;5.616;2023-07-09T11:53:49;101496.72;;;37.06;34.50
59103;BME280;43999;51.660;5.616;2023-07-09T11:56:22;101497.56;;;36.95;34.92
59103;BME280;43999;51.660;5.616;2023-07-09T11:58:56;101496.81;;;36.83;35.17
59103;BME280;43999;51.660;5.616;2023-07-09T12:01:36;101501.94;;;36.67;35.58
59103;BME280;43999;51.660;5.616;2023-07-09T12:04:16;101502.69;;;36.51;35.91
59103;BME280;43999;51.660;5.616;2023-07-09T12:06:47;101506.84;;;36.41;35.83
59103;BME280;43999;51.660;5.616;2023-07-09T12:09:20;101507.47;;;36.32;35.83
59103;BME280;43999;51.660;5.616;2023-07-09T12:11:50;101505.53;;;36.20;36.16
59103;BME280;43999;51.660;5.616;2023-07-09T12:14:21;101502.59;;;36.10;36.74
59103;BME280;43999;51.660;5.616;2023-07-09T12:16:52;101496.41;;;36.03;36.79
59103;BME280;43999;51.660;5.616;2023-07-09T12:19:23;101505.41;;;36.03;36.85
59103;BME280;43999;51.660;5.616;2023-07-09T12:21:58;101495.34;;;36.04;37.79
59103;BME280;43999;51.660;5.616;2023-07-09T12:24:30;101501.38;;;35.94;39.48
59103;BME280;43999;51.660;5.616;2023-07-09T12:27:20;101494.59;;;35.73;40.63
59103;BME280;43999;51.660;5.616;2023-07-09T12:29:56;101485.44;;;35.56;41.42
59103;BME280;43999;51.660;5.616;2023-07-09T12:32:24;101484.84;;;35.42;42.30
59103;BME280;43999;51.660;5.616;2023-07-09T12:34:56;101481.59;;;35.33;42.42
59103;BME280;43999;51.660;5.616;2023-07-09T12:37:27;101472.00;;;35.30;42.87
59103;BME280;43999;51.660;5.616;2023-07-09T12:40:00;101473.13;;;35.23;43.01
59103;BME280;43999;51.660;5.616;2023-07-09T12:42:35;101460.31;;;35.11;43.42
59103;BME280;43999;51.660;5.616;2023-07-09T12:45:05;101461.78;;;34.95;43.74
59103;BME280;43999;51.660;5.616;2023-07-09T12:47:48;101470.38;;;34.80;43.92
59103;BME280;43999;51.660;5.616;2023-07-09T12:50:32;101480.09;;;34.70;43.81
59103;BME280;43999;51.660;5.616;2023-07-09T12:53:18;101482.38;;;34.54;44.84
59103;BME280;43999;51.660;5.616;2023-07-09T12:55:49;101475.88;;;34.37;45.12
59103;BME280;43999;51.660;5.616;2023-07-09T12:58:25;101470.78;;;34.22;46.11
59103;BME280;43999;51.660;5.616;2023-07-09T13:00:57;101468.59;;;34.12;46.69
59103;BME280;43999;51.660;5.616;2023-07-09T13:03:34;101453.03;;;34.01;46.83
59103;BME280;43999;51.660;5.616;2023-07-09T13:06:05;101460.16;;;33.95;47.71
59103;BME280;43999;51.660;5.616;2023-07-09T13:08:59;101475.41;;;33.78;54.81
59103;BME280;43999;51.660;5.616;2023-07-09T13:11:39;101483.53;;;33.46;58.65
59103;BME280;43999;51.660;5.616;2023-07-09T13:14:30;101486.63;;;33.11;60.00
59103;BME280;43999;51.660;5.616;2023-07-09T13:17:05;101491.38;;;32.83;62.64
59103;BME280;43999;51.660;5.616;2023-07-09T13:19:34;101502.09;;;32.51;64.36
59103;BME280;43999;51.660;5.616;2023-07-09T13:22:04;101502.56;;;32.22;65.62
59103;BME280;43999;51.660;5.616;2023-07-09T13:24:35;101502.16;;;31.98;67.48
59103;BME280;43999;51.660;5.616;2023-07-09T13:27:07;101496.75;;;31.78;67.92
59103;BME280;43999;51.660;5.616;2023-07-09T13:29:38;101482.56;;;31.56;68.87
59103;BME280;43999;51.660;5.616;2023-07-09T13:32:11;101486.66;;;31.32;70.17
59103;BME280;43999;51.660;5.616;2023-07-09T13:34:42;101486.59;;;31.12;70.14
59103;BME280;43999;51.660;5.616;2023-07-09T13:37:16;101485.50;;;30.99;71.69
59103;BME280;43999;51.660;5.616;2023-07-09T13:39:47;101494.59;;;30.85;73.75
59103;BME280;43999;51.660;5.616;2023-07-09T13:42:17;101499.72;;;30.73;73.14
59103;BME280;43999;51.660;5.616;2023-07-09T13:44:50;101500.09;;;30.63;73.26